LFJL/ETZ METAR and TAF weather

Enter ICAO airport designator
Station Type Date Time Source
LFJL METAR 2020/12/06 01:00 UTC NOAA

LFJL 060100Z AUTO 13003KT 4200 BR NSC 00/M00 Q0999 TEMPO OVC003


Station Type Date Time Source
LFJL Decoded METAR 2020/12/06 01:00 UTC NOAA

Metz-Nancy-Lorraine, France (LFJL) 48-59N 006-15E
Dec 05, 2020 - 08:00 PM EST / 2020.12.06 0100 UTC
Wind: from the SE (130 degrees) at 3 MPH (3 KT):0
Visibility: 2 mile(s):0
Weather: mist
Temperature: 32 F (0 C)
Dew Point: 32 F (0 C)
Relative Humidity: 100%
Pressure (altimeter): 29.50 in. Hg (0999 hPa)
ob: LFJL 060100Z AUTO 13003KT 4200 BR NSC 00/M00 Q0999 TEMPO OVC003
cycle: 1

Station Type Date Time Source
LFJL TAF 2020/12/05 18:21 UTC NOAA

TAF LFJL 051700Z 0518/0618 09008KT CAVOK
BECMG 0519/0521 4000 BR
TEMPO 0600/0603 1200 BR OVC004
BECMG 0603/0605 2000 BR OVC006
TEMPO 0605/0618 0800 FG OVC002

Example: see airport list